sensor_id;sensor_type;location;lat;lon;timestamp;P1;durP1;ratioP1;P2;durP2;ratioP2
70075;SDS011;63241;51.056;3.698;2023-03-02T00:29:28;14.63;;;8.08;;
70075;SDS011;63241;51.056;3.698;2023-03-02T00:31:55;14.80;;;8.48;;
70075;SDS011;63241;51.056;3.698;2023-03-02T00:34:23;12.93;;;7.58;;
70075;SDS011;63241;51.056;3.698;2023-03-02T00:36:51;13.05;;;8.43;;
70075;SDS011;63241;51.056;3.698;2023-03-02T00:42:11;15.78;;;8.73;;
70075;SDS011;63241;51.056;3.698;2023-03-02T00:44:39;17.37;;;8.70;;
70075;SDS011;63241;51.056;3.698;2023-03-02T00:47:07;14.95;;;8.40;;
70075;SDS011;63241;51.056;3.698;2023-03-02T00:56:09;13.28;;;7.78;;
70075;SDS011;63241;51.056;3.698;2023-03-02T00:58:37;13.75;;;8.48;;
70075;SDS011;63241;51.056;3.698;2023-03-02T01:01:06;13.28;;;8.30;;
70075;SDS011;63241;51.056;3.698;2023-03-02T01:10:08;13.28;;;7.78;;
70075;SDS011;63241;51.056;3.698;2023-03-02T01:12:36;15.13;;;8.48;;
70075;SDS011;63241;51.056;3.698;2023-03-02T01:15:05;16.70;;;9.03;;
70075;SDS011;63241;51.056;3.698;2023-03-02T01:23:38;15.88;;;9.23;;
70075;SDS011;63241;51.056;3.698;2023-03-02T01:26:07;14.33;;;8.13;;
70075;SDS011;63241;51.056;3.698;2023-03-02T01:28:35;14.93;;;8.28;;
70075;SDS011;63241;51.056;3.698;2023-03-02T01:37:16;12.55;;;8.08;;
70075;SDS011;63241;51.056;3.698;2023-03-02T01:39:45;14.40;;;8.53;;
70075;SDS011;63241;51.056;3.698;2023-03-02T01:42:13;14.75;;;8.75;;
70075;SDS011;63241;51.056;3.698;2023-03-02T01:51:22;14.05;;;9.28;;
70075;SDS011;63241;51.056;3.698;2023-03-02T01:53:53;15.25;;;8.78;;
70075;SDS011;63241;51.056;3.698;2023-03-02T01:56:24;15.25;;;8.65;;
70075;SDS011;63241;51.056;3.698;2023-03-02T02:04:44;15.80;;;8.88;;
70075;SDS011;63241;51.056;3.698;2023-03-02T02:07:14;14.35;;;8.58;;
70075;SDS011;63241;51.056;3.698;2023-03-02T02:09:43;18.30;;;8.35;;
70075;SDS011;63241;51.056;3.698;2023-03-02T02:12:15;18.30;;;9.18;;
70075;SDS011;63241;51.056;3.698;2023-03-02T02:14:44;15.93;;;8.73;;
70075;SDS011;63241;51.056;3.698;2023-03-02T02:17:12;13.85;;;8.70;;
70075;SDS011;63241;51.056;3.698;2023-03-02T02:22:31;14.38;;;8.83;;
70075;SDS011;63241;51.056;3.698;2023-03-02T02:24:56;13.25;;;8.45;;
70075;SDS011;63241;51.056;3.698;2023-03-02T02:27:27;13.40;;;8.80;;
70075;SDS011;63241;51.056;3.698;2023-03-02T02:29:56;16.37;;;8.80;;
70075;SDS011;63241;51.056;3.698;2023-03-02T02:32:26;15.43;;;9.50;;
70075;SDS011;63241;51.056;3.698;2023-03-02T02:34:58;15.13;;;8.78;;
70075;SDS011;63241;51.056;3.698;2023-03-02T02:37:32;14.98;;;9.38;;
70075;SDS011;63241;51.056;3.698;2023-03-02T02:40:00;15.28;;;9.73;;
70075;SDS011;63241;51.056;3.698;2023-03-02T02:42:34;16.40;;;9.55;;
70075;SDS011;63241;51.056;3.698;2023-03-02T02:45:05;18.65;;;9.08;;
70075;SDS011;63241;51.056;3.698;2023-03-02T02:47:35;16.70;;;9.93;;
70075;SDS011;63241;51.056;3.698;2023-03-02T02:50:04;14.47;;;9.03;;
70075;SDS011;63241;51.056;3.698;2023-03-02T02:52:33;14.55;;;9.30;;
70075;SDS011;63241;51.056;3.698;2023-03-02T02:55:01;14.80;;;9.35;;
70075;SDS011;63241;51.056;3.698;2023-03-02T02:57:29;15.23;;;9.15;;
70075;SDS011;63241;51.056;3.698;2023-03-02T02:59:58;17.60;;;9.38;;
70075;SDS011;63241;51.056;3.698;2023-03-02T03:02:27;15.93;;;9.00;;
70075;SDS011;63241;51.056;3.698;2023-03-02T03:04:57;14.63;;;9.35;;
70075;SDS011;63241;51.056;3.698;2023-03-02T03:07:30;17.35;;;9.20;;
70075;SDS011;63241;51.056;3.698;2023-03-02T03:12:38;15.08;;;8.45;;
70075;SDS011;63241;51.056;3.698;2023-03-02T03:15:07;13.38;;;8.25;;
70075;SDS011;63241;51.056;3.698;2023-03-02T03:17:36;16.95;;;9.08;;
70075;SDS011;63241;51.056;3.698;2023-03-02T03:20:04;16.45;;;9.45;;
70075;SDS011;63241;51.056;3.698;2023-03-02T03:22:36;15.15;;;8.73;;
70075;SDS011;63241;51.056;3.698;2023-03-02T03:25:05;18.12;;;8.83;;
70075;SDS011;63241;51.056;3.698;2023-03-02T03:27:33;13.53;;;8.30;;
70075;SDS011;63241;51.056;3.698;2023-03-02T03:30:01;15.60;;;9.23;;
70075;SDS011;63241;51.056;3.698;2023-03-02T03:32:29;15.10;;;8.60;;
70075;SDS011;63241;51.056;3.698;2023-03-02T03:34:58;13.55;;;8.53;;
70075;SDS011;63241;51.056;3.698;2023-03-02T03:37:27;14.58;;;8.73;;
70075;SDS011;63241;51.056;3.698;2023-03-02T03:39:55;14.85;;;8.73;;
70075;SDS011;63241;51.056;3.698;2023-03-02T03:42:23;13.68;;;9.23;;
70075;SDS011;63241;51.056;3.698;2023-03-02T03:44:51;14.63;;;9.33;;
70075;SDS011;63241;51.056;3.698;2023-03-02T03:47:19;15.65;;;9.15;;
70075;SDS011;63241;51.056;3.698;2023-03-02T03:49:47;11.93;;;8.50;;
70075;SDS011;63241;51.056;3.698;2023-03-02T03:52:15;15.35;;;9.00;;
70075;SDS011;63241;51.056;3.698;2023-03-02T03:54:42;13.93;;;9.15;;
70075;SDS011;63241;51.056;3.698;2023-03-02T03:57:10;15.20;;;9.33;;
70075;SDS011;63241;51.056;3.698;2023-03-02T03:59:38;14.98;;;9.53;;
70075;SDS011;63241;51.056;3.698;2023-03-02T04:02:06;15.60;;;9.63;;
70075;SDS011;63241;51.056;3.698;2023-03-02T04:04:34;13.85;;;9.20;;
70075;SDS011;63241;51.056;3.698;2023-03-02T04:07:02;15.55;;;9.60;;
70075;SDS011;63241;51.056;3.698;2023-03-02T04:09:29;16.62;;;9.00;;
70075;SDS011;63241;51.056;3.698;2023-03-02T04:11:59;20.35;;;9.90;;
70075;SDS011;63241;51.056;3.698;2023-03-02T04:14:27;16.23;;;9.08;;
70075;SDS011;63241;51.056;3.698;2023-03-02T04:16:55;19.17;;;8.98;;
70075;SDS011;63241;51.056;3.698;2023-03-02T04:19:22;13.60;;;8.85;;
70075;SDS011;63241;51.056;3.698;2023-03-02T04:21:51;14.25;;;9.73;;
70075;SDS011;63241;51.056;3.698;2023-03-02T04:24:20;14.73;;;8.75;;
70075;SDS011;63241;51.056;3.698;2023-03-02T04:26:49;15.68;;;8.93;;
70075;SDS011;63241;51.056;3.698;2023-03-02T04:29:17;16.70;;;9.48;;
70075;SDS011;63241;51.056;3.698;2023-03-02T04:31:45;16.17;;;9.55;;
70075;SDS011;63241;51.056;3.698;2023-03-02T04:34:13;17.55;;;10.18;;
70075;SDS011;63241;51.056;3.698;2023-03-02T04:36:41;19.65;;;9.95;;
70075;SDS011;63241;51.056;3.698;2023-03-02T04:39:11;17.87;;;10.00;;
70075;SDS011;63241;51.056;3.698;2023-03-02T04:41:41;21.17;;;10.65;;
70075;SDS011;63241;51.056;3.698;2023-03-02T04:44:10;17.17;;;9.78;;
70075;SDS011;63241;51.056;3.698;2023-03-02T04:46:39;16.77;;;10.03;;
70075;SDS011;63241;51.056;3.698;2023-03-02T04:49:08;18.23;;;10.85;;
70075;SDS011;63241;51.056;3.698;2023-03-02T04:51:37;20.60;;;11.60;;
70075;SDS011;63241;51.056;3.698;2023-03-02T04:54:07;22.27;;;11.38;;
70075;SDS011;63241;51.056;3.698;2023-03-02T04:56:46;23.40;;;12.55;;
70075;SDS011;63241;51.056;3.698;2023-03-02T04:59:14;21.20;;;13.08;;
70075;SDS011;63241;51.056;3.698;2023-03-02T05:01:43;22.52;;;12.88;;
70075;SDS011;63241;51.056;3.698;2023-03-02T05:04:12;23.98;;;13.80;;
70075;SDS011;63241;51.056;3.698;2023-03-02T05:06:40;26.70;;;15.83;;
70075;SDS011;63241;51.056;3.698;2023-03-02T05:09:08;28.15;;;16.40;;
70075;SDS011;63241;51.056;3.698;2023-03-02T05:11:37;28.32;;;16.87;;
70075;SDS011;63241;51.056;3.698;2023-03-02T05:14:06;30.20;;;16.82;;
70075;SDS011;63241;51.056;3.698;2023-03-02T05:16:36;30.52;;;19.57;;
70075;SDS011;63241;51.056;3.698;2023-03-02T05:19:06;31.52;;;18.70;;
70075;SDS011;63241;51.056;3.698;2023-03-02T05:21:36;26.47;;;15.53;;
70075;SDS011;63241;51.056;3.698;2023-03-02T05:24:05;36.30;;;20.32;;
70075;SDS011;63241;51.056;3.698;2023-03-02T05:26:33;36.00;;;20.70;;
70075;SDS011;63241;51.056;3.698;2023-03-02T05:29:01;37.42;;;21.87;;
70075;SDS011;63241;51.056;3.698;2023-03-02T05:31:30;40.20;;;23.80;;
70075;SDS011;63241;51.056;3.698;2023-03-02T05:34:04;38.45;;;22.65;;
70075;SDS011;63241;51.056;3.698;2023-03-02T05:36:33;41.00;;;24.82;;
70075;SDS011;63241;51.056;3.698;2023-03-02T05:39:02;46.58;;;24.57;;
70075;SDS011;63241;51.056;3.698;2023-03-02T05:41:30;42.65;;;25.20;;
70075;SDS011;63241;51.056;3.698;2023-03-02T05:43:58;45.30;;;25.48;;
70075;SDS011;63241;51.056;3.698;2023-03-02T05:46:26;42.98;;;25.05;;
70075;SDS011;63241;51.056;3.698;2023-03-02T05:48:54;46.55;;;26.20;;
70075;SDS011;63241;51.056;3.698;2023-03-02T05:51:22;46.28;;;27.52;;
70075;SDS011;63241;51.056;3.698;2023-03-02T05:53:50;51.35;;;27.77;;
70075;SDS011;63241;51.056;3.698;2023-03-02T05:56:18;52.95;;;28.98;;
70075;SDS011;63241;51.056;3.698;2023-03-02T05:58:47;48.25;;;27.58;;
70075;SDS011;63241;51.056;3.698;2023-03-02T06:01:15;51.70;;;29.57;;
70075;SDS011;63241;51.056;3.698;2023-03-02T06:03:43;55.25;;;29.87;;
70075;SDS011;63241;51.056;3.698;2023-03-02T06:06:10;52.70;;;28.27;;
70075;SDS011;63241;51.056;3.698;2023-03-02T06:08:41;53.70;;;30.32;;
70075;SDS011;63241;51.056;3.698;2023-03-02T06:11:10;53.33;;;29.25;;
70075;SDS011;63241;51.056;3.698;2023-03-02T06:13:38;56.25;;;31.42;;
70075;SDS011;63241;51.056;3.698;2023-03-02T06:16:06;58.42;;;32.28;;
70075;SDS011;63241;51.056;3.698;2023-03-02T06:18:34;57.23;;;32.53;;
70075;SDS011;63241;51.056;3.698;2023-03-02T06:21:03;57.78;;;32.35;;
70075;SDS011;63241;51.056;3.698;2023-03-02T10:14:26;31.07;;;24.98;;
70075;SDS011;63241;51.056;3.698;2023-03-02T10:23:44;29.60;;;24.53;;
70075;SDS011;63241;51.056;3.698;2023-03-02T10:26:22;29.82;;;24.15;;
70075;SDS011;63241;51.056;3.698;2023-03-02T10:31:45;33.40;;;24.35;;
70075;SDS011;63241;51.056;3.698;2023-03-02T10:34:17;34.53;;;25.00;;
70075;SDS011;63241;51.056;3.698;2023-03-02T10:36:52;33.45;;;24.20;;
70075;SDS011;63241;51.056;3.698;2023-03-02T10:39:20;30.95;;;24.27;;
70075;SDS011;63241;51.056;3.698;2023-03-02T10:42:05;27.87;;;22.95;;
70075;SDS011;63241;51.056;3.698;2023-03-02T10:50:40;28.67;;;24.90;;
70075;SDS011;63241;51.056;3.698;2023-03-02T10:53:17;30.50;;;23.80;;
70075;SDS011;63241;51.056;3.698;2023-03-02T10:55:46;30.02;;;24.07;;
70075;SDS011;63241;51.056;3.698;2023-03-02T11:04:22;27.98;;;23.30;;
70075;SDS011;63241;51.056;3.698;2023-03-02T11:06:44;30.37;;;23.83;;
70075;SDS011;63241;51.056;3.698;2023-03-02T11:09:12;28.20;;;22.17;;
70075;SDS011;63241;51.056;3.698;2023-03-02T11:15:26;28.90;;;22.10;;
70075;SDS011;63241;51.056;3.698;2023-03-02T11:20:30;24.82;;;21.23;;
70075;SDS011;63241;51.056;3.698;2023-03-02T11:25:46;27.45;;;20.32;;
70075;SDS011;63241;51.056;3.698;2023-03-02T11:34:19;23.40;;;20.72;;
70075;SDS011;63241;51.056;3.698;2023-03-02T11:37:03;27.10;;;20.70;;
70075;SDS011;63241;51.056;3.698;2023-03-02T11:45:18;24.85;;;20.68;;
70075;SDS011;63241;51.056;3.698;2023-03-02T11:47:54;24.52;;;19.75;;
70075;SDS011;63241;51.056;3.698;2023-03-02T11:50:33;25.57;;;20.92;;
70075;SDS011;63241;51.056;3.698;2023-03-02T11:53:11;23.77;;;20.20;;
70075;SDS011;63241;51.056;3.698;2023-03-02T11:55:44;23.42;;;19.98;;
70075;SDS011;63241;51.056;3.698;2023-03-02T11:58:19;26.90;;;20.48;;
70075;SDS011;63241;51.056;3.698;2023-03-02T12:00:49;27.07;;;19.57;;
70075;SDS011;63241;51.056;3.698;2023-03-02T12:03:22;25.08;;;19.80;;
70075;SDS011;63241;51.056;3.698;2023-03-02T12:19:37;27.32;;;20.77;;
70075;SDS011;63241;51.056;3.698;2023-03-02T12:22:24;24.85;;;19.57;;
70075;SDS011;63241;51.056;3.698;2023-03-02T12:25:26;23.25;;;20.05;;
70075;SDS011;63241;51.056;3.698;2023-03-02T12:30:55;26.45;;;21.25;;
70075;SDS011;63241;51.056;3.698;2023-03-02T12:44:26;21.60;;;18.40;;
70075;SDS011;63241;51.056;3.698;2023-03-02T12:52:40;26.02;;;17.52;;
70075;SDS011;63241;51.056;3.698;2023-03-02T12:57:45;23.17;;;17.90;;
70075;SDS011;63241;51.056;3.698;2023-03-02T13:00:16;24.35;;;17.45;;
70075;SDS011;63241;51.056;3.698;2023-03-02T13:02:48;21.07;;;16.73;;
70075;SDS011;63241;51.056;3.698;2023-03-02T13:05:24;24.75;;;18.05;;
70075;SDS011;63241;51.056;3.698;2023-03-02T13:08:18;28.67;;;19.70;;
70075;SDS011;63241;51.056;3.698;2023-03-02T13:10:49;26.60;;;17.87;;
70075;SDS011;63241;51.056;3.698;2023-03-02T13:13:33;23.87;;;18.17;;
70075;SDS011;63241;51.056;3.698;2023-03-02T13:21:50;27.58;;;19.50;;
70075;SDS011;63241;51.056;3.698;2023-03-02T13:24:28;27.67;;;18.45;;
70075;SDS011;63241;51.056;3.698;2023-03-02T13:27:15;23.25;;;16.97;;
70075;SDS011;63241;51.056;3.698;2023-03-02T13:36:34;25.95;;;19.75;;
70075;SDS011;63241;51.056;3.698;2023-03-02T13:39:05;21.50;;;17.92;;
70075;SDS011;63241;51.056;3.698;2023-03-02T13:41:35;26.02;;;19.62;;
70075;SDS011;63241;51.056;3.698;2023-03-02T13:50:05;25.23;;;19.50;;
70075;SDS011;63241;51.056;3.698;2023-03-02T13:55:00;25.70;;;19.48;;
70075;SDS011;63241;51.056;3.698;2023-03-02T14:03:37;24.35;;;19.57;;
70075;SDS011;63241;51.056;3.698;2023-03-02T14:06:05;25.52;;;18.25;;
70075;SDS011;63241;51.056;3.698;2023-03-02T14:08:33;26.73;;;19.87;;
70075;SDS011;63241;51.056;3.698;2023-03-02T14:17:22;31.37;;;20.17;;
70075;SDS011;63241;51.056;3.698;2023-03-02T14:19:51;28.70;;;20.12;;
70075;SDS011;63241;51.056;3.698;2023-03-02T14:22:24;27.35;;;19.27;;
70075;SDS011;63241;51.056;3.698;2023-03-02T14:31:15;28.90;;;19.95;;
70075;SDS011;63241;51.056;3.698;2023-03-02T14:33:44;28.12;;;19.92;;
70075;SDS011;63241;51.056;3.698;2023-03-02T14:36:13;29.85;;;19.15;;
70075;SDS011;63241;51.056;3.698;2023-03-02T14:47:25;27.62;;;18.42;;
70075;SDS011;63241;51.056;3.698;2023-03-02T14:49:53;28.25;;;16.95;;
70075;SDS011;63241;51.056;3.698;2023-03-02T14:58:33;23.25;;;17.73;;
70075;SDS011;63241;51.056;3.698;2023-03-02T15:01:01;25.85;;;17.37;;
70075;SDS011;63241;51.056;3.698;2023-03-02T15:03:29;26.95;;;17.40;;
70075;SDS011;63241;51.056;3.698;2023-03-02T15:12:14;26.45;;;16.87;;
70075;SDS011;63241;51.056;3.698;2023-03-02T15:14:42;30.02;;;18.70;;
70075;SDS011;63241;51.056;3.698;2023-03-02T15:17:09;28.65;;;18.85;;
70075;SDS011;63241;51.056;3.698;2023-03-02T15:25:59;33.92;;;20.02;;
70075;SDS011;63241;51.056;3.698;2023-03-02T15:28:29;37.67;;;20.55;;
70075;SDS011;63241;51.056;3.698;2023-03-02T15:30:57;37.15;;;20.02;;
70075;SDS011;63241;51.056;3.698;2023-03-02T15:36:56;32.48;;;18.42;;
70075;SDS011;63241;51.056;3.698;2023-03-02T15:39:24;29.82;;;17.48;;
70075;SDS011;63241;51.056;3.698;2023-03-02T15:41:52;29.65;;;17.60;;
70075;SDS011;63241;51.056;3.698;2023-03-02T15:44:21;32.25;;;16.97;;
70075;SDS011;63241;51.056;3.698;2023-03-02T15:52:55;28.05;;;16.62;;
70075;SDS011;63241;51.056;3.698;2023-03-02T15:55:23;27.35;;;16.60;;
70075;SDS011;63241;51.056;3.698;2023-03-02T15:57:52;26.77;;;15.75;;
70075;SDS011;63241;51.056;3.698;2023-03-02T16:03:57;27.32;;;15.78;;
70075;SDS011;63241;51.056;3.698;2023-03-02T16:06:25;27.02;;;15.63;;
70075;SDS011;63241;51.056;3.698;2023-03-02T16:08:53;28.42;;;15.75;;
70075;SDS011;63241;51.056;3.698;2023-03-02T16:11:21;29.67;;;16.80;;
70075;SDS011;63241;51.056;3.698;2023-03-02T16:20:03;27.20;;;14.43;;
70075;SDS011;63241;51.056;3.698;2023-03-02T16:22:31;25.97;;;14.65;;
70075;SDS011;63241;51.056;3.698;2023-03-02T16:24:58;23.67;;;13.93;;
70075;SDS011;63241;51.056;3.698;2023-03-02T16:33:54;26.93;;;13.58;;
70075;SDS011;63241;51.056;3.698;2023-03-02T16:36:22;30.48;;;14.00;;
70075;SDS011;63241;51.056;3.698;2023-03-02T16:38:51;23.27;;;13.28;;
70075;SDS011;63241;51.056;3.698;2023-03-02T16:41:33;24.85;;;13.32;;
70075;SDS011;63241;51.056;3.698;2023-03-02T16:44:30;23.92;;;13.53;;
70075;SDS011;63241;51.056;3.698;2023-03-02T16:46:57;24.23;;;12.37;;
70075;SDS011;63241;51.056;3.698;2023-03-02T16:49:25;21.57;;;11.50;;
70075;SDS011;63241;51.056;3.698;2023-03-02T16:51:55;34.08;;;15.63;;
70075;SDS011;63241;51.056;3.698;2023-03-02T16:57:42;22.62;;;13.83;;
70075;SDS011;63241;51.056;3.698;2023-03-02T17:00:15;22.77;;;15.20;;
70075;SDS011;63241;51.056;3.698;2023-03-02T17:02:43;28.30;;;15.88;;
70075;SDS011;63241;51.056;3.698;2023-03-02T17:05:12;28.75;;;16.95;;
70075;SDS011;63241;51.056;3.698;2023-03-02T17:13:29;26.30;;;16.17;;
70075;SDS011;63241;51.056;3.698;2023-03-02T17:15:57;28.15;;;16.65;;
70075;SDS011;63241;51.056;3.698;2023-03-02T17:18:25;26.75;;;16.45;;
70075;SDS011;63241;51.056;3.698;2023-03-02T17:26:54;29.63;;;16.82;;
70075;SDS011;63241;51.056;3.698;2023-03-02T17:29:22;33.20;;;17.42;;
70075;SDS011;63241;51.056;3.698;2023-03-02T17:31:50;29.92;;;17.02;;
70075;SDS011;63241;51.056;3.698;2023-03-02T17:37:46;29.23;;;16.97;;
70075;SDS011;63241;51.056;3.698;2023-03-02T17:40:16;29.32;;;17.30;;
70075;SDS011;63241;51.056;3.698;2023-03-02T17:42:44;33.35;;;18.55;;
70075;SDS011;63241;51.056;3.698;2023-03-02T17:45:16;30.27;;;17.73;;
70075;SDS011;63241;51.056;3.698;2023-03-02T17:47:56;30.32;;;18.70;;
70075;SDS011;63241;51.056;3.698;2023-03-02T17:53:56;32.20;;;17.52;;
70075;SDS011;63241;51.056;3.698;2023-03-02T17:56:25;32.90;;;17.37;;
70075;SDS011;63241;51.056;3.698;2023-03-02T17:58:53;32.73;;;18.37;;
70075;SDS011;63241;51.056;3.698;2023-03-02T18:01:26;33.28;;;19.77;;
70075;SDS011;63241;51.056;3.698;2023-03-02T18:07:25;31.37;;;17.77;;
70075;SDS011;63241;51.056;3.698;2023-03-02T18:09:53;30.02;;;19.75;;
70075;SDS011;63241;51.056;3.698;2023-03-02T18:12:21;35.88;;;19.92;;
70075;SDS011;63241;51.056;3.698;2023-03-02T18:14:50;30.05;;;18.55;;
70075;SDS011;63241;51.056;3.698;2023-03-02T18:20:59;39.03;;;20.25;;
70075;SDS011;63241;51.056;3.698;2023-03-02T18:23:28;38.88;;;21.37;;
70075;SDS011;63241;51.056;3.698;2023-03-02T18:28:48;36.58;;;21.62;;
70075;SDS011;63241;51.056;3.698;2023-03-02T18:31:16;38.70;;;21.90;;
70075;SDS011;63241;51.056;3.698;2023-03-02T18:33:45;42.58;;;21.70;;
70075;SDS011;63241;51.056;3.698;2023-03-02T18:36:21;39.50;;;23.15;;
70075;SDS011;63241;51.056;3.698;2023-03-02T18:41:55;40.88;;;24.63;;
70075;SDS011;63241;51.056;3.698;2023-03-02T18:44:23;44.15;;;23.73;;
70075;SDS011;63241;51.056;3.698;2023-03-02T18:46:52;40.33;;;24.05;;
70075;SDS011;63241;51.056;3.698;2023-03-02T18:49:25;34.03;;;21.05;;
70075;SDS011;63241;51.056;3.698;2023-03-02T18:52:18;37.05;;;21.45;;
70075;SDS011;63241;51.056;3.698;2023-03-02T18:55:13;33.55;;;20.45;;
70075;SDS011;63241;51.056;3.698;2023-03-02T18:57:41;28.55;;;18.92;;
70075;SDS011;63241;51.056;3.698;2023-03-02T19:00:11;31.85;;;19.62;;
70075;SDS011;63241;51.056;3.698;2023-03-02T19:05:45;32.90;;;20.27;;
70075;SDS011;63241;51.056;3.698;2023-03-02T19:08:25;33.70;;;20.05;;
70075;SDS011;63241;51.056;3.698;2023-03-02T19:10:53;34.95;;;20.60;;
70075;SDS011;63241;51.056;3.698;2023-03-02T19:13:25;32.70;;;19.80;;
70075;SDS011;63241;51.056;3.698;2023-03-02T19:15:54;35.58;;;21.05;;
70075;SDS011;63241;51.056;3.698;2023-03-02T19:22:00;33.10;;;21.57;;
